Packwood, Washington
Current Conditions -  °F | °C
As of 2:29 AM on Thursday 18 Dec 2014 (Local Time) from KTCM Reporting Station
Light Rain Light Rain  
Wind Chill: 43°   Ceiling: 2200
Heat Index: 43°   Visibility: 7mi
Dew Point: 43°   Wind: 3mph
Humidity: 100%   Direction: 170°S
Pressure: 29.95"   Gusts: NA
Location:  46.61°N, 121.67°W
Report Text: KTCM 181029Z AUTO 17003KT 7SM -RA SCT013 OVC022 06/06 A2995 RMK AO2 RAB14 CIG 013V022 $
Loading
Personal Weather Stations






























Interactive Weather Map New forecast layout! Learn more

10-Day Weather Forecast

Advertisements
Track Severe Weather on mobile